Time;durP1;ratioP1;P1;durP2;ratioP2;P2;SDS_P1;SDS_P2;PMS_P1;PMS_P2;Temp;Humidity;BMP_temperature;BMP_pressure;BME280_temperature;BME280_humidity;BME280_pressure;Samples;Min_cycle;Max_cycle;Signal;HPM_P1;HPM_P2
2022/02/06 00:01:02;;;;;;;7.13;1.97;;;6.10;77.30;;;;;;5028410;28;20491;-47
2022/02/06 00:03:31;;;;;;;3.03;1.63;;;6.10;77.30;;;;;;5027101;28;20531;-46
2022/02/06 00:06:00;;;;;;;4.60;2.03;;;6.10;77.40;;;;;;5026584;28;20455;-47
2022/02/06 00:08:26;;;;;;;2.50;1.47;;;6.10;77.40;;;;;;5026646;28;20465;-47
2022/02/06 00:10:53;;;;;;;6.47;2.70;;;6.10;77.50;;;;;;5025999;28;20859;-47
2022/02/06 00:13:20;;;;;;;4.73;1.67;;;6.10;77.40;;;;;;5026445;28;20463;-47
2022/02/06 00:15:48;;;;;;;5.00;2.40;;;6.20;77.30;;;;;;5026732;28;20474;-47
2022/02/06 00:18:14;;;;;;;1.67;1.57;;;6.10;77.30;;;;;;5027655;28;20455;-47
2022/02/06 00:20:50;;;;;;;9.97;2.47;;;6.10;77.40;;;;;;5026681;28;20483;-48
2022/02/06 00:23:20;;;;;;;7.60;2.00;;;6.20;77.30;;;;;;5024993;28;20456;-48
2022/02/06 00:30:59;;;;;;;4.53;1.87;;;6.20;77.40;;;;;;5012696;28;20470;-48
2022/02/06 00:41:29;;;;;;;2.10;2.00;;;6.20;77.40;;;;;;5027070;28;20810;-47
2022/02/06 00:44:02;;;;;;;4.27;2.10;;;6.20;77.40;;;;;;5024794;28;20466;-47
2022/02/06 00:46:35;;;;;;;2.73;1.77;;;6.20;77.30;;;;;;5024540;28;21031;-47
2022/02/06 00:49:16;;;;;;;2.50;2.30;;;6.20;77.20;;;;;;5025926;28;20462;-47
2022/02/06 00:51:55;;;;;;;4.80;2.30;;;6.20;77.30;;;;;;4985899;28;20454;-47
2022/02/06 00:54:22;;;;;;;11.07;2.93;;;6.20;77.10;;;;;;5025362;28;20467;-48
2022/02/06 00:56:49;;;;;;;4.63;2.27;;;6.20;77.20;;;;;;5020732;28;20462;-47
2022/02/06 00:59:16;;;;;;;4.10;1.90;;;6.20;77.40;;;;;;5022790;28;20459;-47
2022/02/06 01:01:44;;;;;;;4.20;2.00;;;6.20;77.40;;;;;;5026987;28;20487;-47
2022/02/06 01:04:13;;;;;;;3.50;1.90;;;6.30;77.10;;;;;;5014939;28;20462;-47
2022/02/06 01:06:42;;;;;;;4.73;2.17;;;6.30;77.00;;;;;;5025667;28;20462;-46
2022/02/06 01:09:09;;;;;;;2.70;1.73;;;6.30;77.00;;;;;;5013283;28;20943;-47
2022/02/06 01:11:38;;;;;;;8.23;2.43;;;6.30;77.00;;;;;;5025936;28;20879;-47
2022/02/06 01:14:16;;;;;;;;;;;;;;;;;;;;;
2022/02/06 01:16:41;;;;;;;3.40;2.10;;;6.30;77.20;;;;;;5027143;28;20470;-46
2022/02/06 01:19:22;;;;;;;4.70;2.47;;;6.30;77.10;;;;;;5027370;28;20812;-46
2022/02/06 01:21:56;;;;;;;3.47;2.37;;;6.30;77.40;;;;;;5011589;28;20491;-47
2022/02/06 01:27:13;;;;;;;7.03;2.00;;;6.30;77.60;;;;;;5026437;28;20459;-47
2022/02/06 01:29:59;;;;;;;4.80;2.47;;;6.30;77.40;;;;;;5024077;28;20458;-47
2022/02/06 01:32:36;;;;;;;3.23;2.30;;;6.30;77.50;;;;;;5025772;28;20451;-47
2022/02/06 01:35:11;;;;;;;7.60;1.97;;;6.40;77.50;;;;;;5024495;28;20451;-46
2022/02/06 01:37:46;;;;;;;3.50;2.13;;;6.40;77.60;;;;;;5024396;28;20502;-46
2022/02/06 01:40:56;;;;;;;10.73;2.43;;;6.40;77.60;;;;;;5014874;28;20451;-46
2022/02/06 01:43:12;;;;;;;10.53;3.00;;;6.40;77.60;;;;;;5022275;28;20821;-47
2022/02/06 01:46:08;;;;;;;4.90;2.70;;;6.40;77.70;;;;;;5025680;28;20459;-47
2022/02/06 02:02:49;;;;;;;6.33;2.60;;;6.40;78.00;;;;;;5024272;28;20487;-47
2022/02/06 02:10:58;;;;;;;2.80;2.40;;;6.50;77.70;;;;;;5029089;28;20466;-48
2022/02/06 02:23:56;;;;;;;5.27;2.50;;;6.50;77.80;;;;;;5027986;28;20466;-47
2022/02/06 02:47:20;;;;;;;4.87;3.30;;;6.60;77.70;;;;;;5024643;28;20829;-47
2022/02/06 02:49:55;;;;;;;2.90;2.20;;;6.60;77.60;;;;;;5025026;28;20463;-47
2022/02/06 02:55:16;;;;;;;3.63;2.33;;;6.60;77.70;;;;;;5027773;28;20990;-47
2022/02/06 02:57:55;;;;;;;6.57;3.20;;;6.70;77.60;;;;;;5028363;28;20489;-47
2022/02/06 03:03:41;;;;;;;4.07;2.80;;;6.70;77.70;;;;;;5026607;28;20542;-47
2022/02/06 03:06:08;;;;;;;4.23;3.40;;;6.70;77.70;;;;;;5028813;28;20882;-46
2022/02/06 03:08:38;;;;;;;8.47;3.20;;;6.70;77.70;;;;;;5028388;28;20879;-47
2022/02/06 03:11:09;;;;;;;6.40;3.23;;;6.70;77.80;;;;;;5027708;28;20965;-47
2022/02/06 03:14:05;;;;;;;6.50;2.87;;;6.70;77.70;;;;;;5027962;28;20463;-47
2022/02/06 03:16:36;;;;;;;6.03;3.80;;;6.70;77.60;;;;;;5009110;28;20930;-48
2022/02/06 03:21:33;;;;;;;4.33;3.23;;;6.70;77.70;;;;;;5026174;28;20486;-47
2022/02/06 03:24:23;;;;;;;3.03;2.70;;;6.70;77.80;;;;;;5027709;28;20463;-47
2022/02/06 03:26:53;;;;;;;3.47;2.90;;;6.70;77.60;;;;;;5025935;28;20494;-47
2022/02/06 03:29:22;;;;;;;4.17;2.57;;;6.70;77.60;;;;;;5025355;28;21003;-47
2022/02/06 03:31:50;;;;;;;5.83;3.37;;;6.70;77.60;;;;;;5026790;28;20559;-46
2022/02/06 03:34:18;;;;;;;5.17;3.27;;;6.70;77.60;;;;;;5026196;28;20549;-47
2022/02/06 03:36:45;;;;;;;2.83;2.63;;;6.70;77.70;;;;;;5025912;28;20467;-47
2022/02/06 03:39:12;;;;;;;8.70;3.90;;;6.70;77.70;;;;;;5027306;28;20460;-46
2022/02/06 03:42:24;;;;;;;6.87;2.53;;;6.70;77.50;;;;;;5026049;28;20509;-47
2022/02/06 03:44:38;;;;;;;2.50;2.30;;;6.70;77.70;;;;;;5019860;28;20459;-47
2022/02/06 03:47:11;;;;;;;4.67;2.30;;;6.70;77.70;;;;;;5027167;28;20474;-46
2022/02/06 03:52:14;;;;;;;4.77;2.90;;;6.70;77.70;;;;;;5025395;28;20473;-47
2022/02/06 03:54:41;;;;;;;2.50;2.30;;;6.80;77.50;;;;;;5012725;28;20478;-47
2022/02/06 03:57:08;;;;;;;3.70;2.50;;;6.80;77.50;;;;;;5011410;28;21100;-46
2022/02/06 03:59:35;;;;;;;9.50;3.53;;;6.70;77.60;;;;;;5024565;28;21367;-47
2022/02/06 04:02:04;;;;;;;4.07;2.47;;;6.70;77.70;;;;;;5024345;28;20511;-47
2022/02/06 04:04:30;;;;;;;4.70;2.90;;;6.70;77.70;;;;;;5025880;28;20460;-46
2022/02/06 04:07:05;;;;;;;5.10;2.77;;;6.70;77.70;;;;;;5009045;28;20546;-47
2022/02/06 04:09:39;;;;;;;6.77;3.13;;;6.80;77.70;;;;;;5014084;28;20455;-47
2022/02/06 04:12:07;;;;;;;2.20;1.90;;;6.80;77.70;;;;;;5025045;28;20470;-48
2022/02/06 04:14:43;;;;;;;2.80;2.10;;;6.80;77.50;;;;;;5024175;28;20474;-47
2022/02/06 04:17:21;;;;;;;3.47;2.43;;;6.80;77.50;;;;;;5027434;28;20470;-47
2022/02/06 04:19:48;;;;;;;5.33;2.70;;;6.80;77.50;;;;;;5022122;28;20456;-47
2022/02/06 04:22:14;;;;;;;8.50;3.07;;;6.80;77.30;;;;;;5010718;28;20735;-47
2022/02/06 04:24:41;;;;;;;5.53;2.50;;;6.80;77.30;;;;;;5023505;28;20933;-46
2022/02/06 04:27:08;;;;;;;4.27;1.87;;;6.90;77.30;;;;;;5026362;28;20490;-47
2022/02/06 04:29:36;;;;;;;3.07;2.17;;;6.90;77.20;;;;;;5010798;28;20490;-46
2022/02/06 04:32:05;;;;;;;8.67;3.90;;;6.90;77.10;;;;;;5026309;28;20451;-47
2022/02/06 04:34:31;;;;;;;6.43;3.57;;;6.90;77.00;;;;;;5026068;28;20478;-47
2022/02/06 04:48:20;;;;;;;7.50;2.40;;;6.90;76.90;;;;;;5001925;28;20840;-47
2022/02/06 04:51:27;;;;;;;5.80;2.00;;;6.90;76.80;;;;;;5023209;28;20503;-47
2022/02/06 04:53:52;;;;;;;;;;;;;;;;;;;;;
2022/02/06 05:15:28;;;;;;;3.13;1.70;;;6.90;77.30;;;;;;5025893;28;20886;-47
2022/02/06 05:26:00;;;;;;;3.53;2.37;;;6.90;76.90;;;;;;5023472;28;20459;-47
2022/02/06 05:28:43;;;;;;;2.30;1.67;;;6.90;76.90;;;;;;5026518;28;20477;-47
2022/02/06 05:31:13;;;;;;;8.17;2.47;;;6.90;77.00;;;;;;5025568;28;20493;-47
2022/02/06 05:33:41;;;;;;;2.47;2.27;;;7.00;76.90;;;;;;5024065;28;20558;-47
2022/02/06 05:36:10;;;;;;;3.90;2.17;;;7.00;77.10;;;;;;5026541;28;20455;-47
2022/02/06 05:38:37;;;;;;;4.67;1.80;;;7.00;77.10;;;;;;5025278;28;20834;-47
2022/02/06 05:41:06;;;;;;;12.60;2.47;;;7.00;76.90;;;;;;5026164;28;20455;-47
2022/02/06 05:43:35;;;;;;;7.03;2.00;;;7.00;76.90;;;;;;5030069;28;20838;-47
2022/02/06 05:46:03;;;;;;;3.13;1.87;;;7.00;76.80;;;;;;5014639;28;20461;-46
2022/02/06 05:48:30;;;;;;;1.80;1.70;;;7.10;77.10;;;;;;5026719;28;20470;-47
2022/02/06 05:50:57;;;;;;;8.57;3.10;;;7.00;77.20;;;;;;5028120;28;20451;-47
2022/02/06 05:53:24;;;;;;;2.30;2.10;;;7.00;77.60;;;;;;5009514;28;20466;-47
2022/02/06 05:55:51;;;;;;;5.63;1.90;;;7.00;77.90;;;;;;5027176;28;20463;-48
2022/02/06 05:58:18;;;;;;;3.70;1.53;;;7.00;78.30;;;;;;5028216;28;20460;-47
2022/02/06 06:00:45;;;;;;;8.70;4.63;;;7.00;78.30;;;;;;5026714;28;20820;-47
2022/02/06 06:03:12;;;;;;;3.50;2.10;;;7.00;78.80;;;;;;5028037;28;20501;-48
2022/02/06 06:05:38;;;;;;;5.57;2.23;;;7.00;78.70;;;;;;5026145;28;20463;-47
2022/02/06 06:08:05;;;;;;;3.40;1.80;;;7.00;78.70;;;;;;5027440;28;20998;-47
2022/02/06 06:10:32;;;;;;;2.60;1.87;;;7.00;78.60;;;;;;5027705;28;20463;-47
2022/02/06 06:13:00;;;;;;;3.73;1.90;;;7.00;78.70;;;;;;5024736;28;21117;-47
2022/02/06 06:15:28;;;;;;;4.00;2.03;;;7.00;78.60;;;;;;5025680;28;20545;-46
2022/02/06 06:17:56;;;;;;;3.90;2.13;;;7.00;78.50;;;;;;5026206;28;20471;-47
2022/02/06 06:20:26;;;;;;;3.37;2.10;;;7.10;78.30;;;;;;5028603;28;20471;-48
2022/02/06 06:22:54;;;;;;;1.93;1.80;;;7.10;78.20;;;;;;5009991;28;20494;-47
2022/02/06 06:25:23;;;;;;;3.17;2.00;;;7.00;78.40;;;;;;5025318;28;21018;-46
2022/02/06 06:27:50;;;;;;;3.27;1.70;;;7.00;78.50;;;;;;5010069;28;20462;-46
2022/02/06 06:30:17;;;;;;;3.20;1.87;;;7.10;78.40;;;;;;5025961;28;20960;-46
2022/02/06 06:32:43;;;;;;;5.73;2.60;;;7.10;78.20;;;;;;5025213;28;20463;-46
2022/02/06 06:35:10;;;;;;;2.57;2.07;;;7.10;77.90;;;;;;5026530;28;20463;-47
2022/02/06 06:37:41;;;;;;;5.23;2.07;;;7.20;77.50;;;;;;5028453;28;20859;-47
2022/02/06 06:40:08;;;;;;;2.80;1.30;;;7.20;77.60;;;;;;5027731;28;20478;-47
2022/02/06 06:42:35;;;;;;;10.47;2.40;;;7.20;77.70;;;;;;5028733;28;20483;-47
2022/02/06 06:45:02;;;;;;;4.00;2.40;;;7.20;77.50;;;;;;5027151;28;20462;-47
2022/02/06 06:47:29;;;;;;;10.60;2.17;;;7.20;77.70;;;;;;5027636;28;20483;-47
2022/02/06 06:49:56;;;;;;;3.03;1.80;;;7.20;77.70;;;;;;5010437;28;20466;-47
2022/02/06 06:52:23;;;;;;;2.57;1.87;;;7.20;77.70;;;;;;5025412;28;20495;-47
2022/02/06 06:54:59;;;;;;;3.87;1.70;;;7.20;77.80;;;;;;5024189;28;20472;-47
2022/02/06 06:57:31;;;;;;;2.40;1.37;;;7.20;78.00;;;;;;5025788;28;20921;-47
2022/02/06 07:00:20;;;;;;;2.00;1.37;;;7.20;78.00;;;;;;5025619;28;20506;-46
2022/02/06 07:02:44;;;;;;;2.47;1.60;;;7.20;78.20;;;;;;5025648;28;20491;-46
2022/02/06 07:05:11;;;;;;;2.80;1.80;;;7.20;78.40;;;;;;5028443;28;20456;-46
2022/02/06 07:07:37;;;;;;;1.87;1.40;;;7.20;78.60;;;;;;5027030;28;20987;-46
2022/02/06 07:10:06;;;;;;;4.13;2.40;;;7.20;78.70;;;;;;5011295;28;20443;-46
2022/02/06 07:12:33;;;;;;;5.53;2.00;;;7.20;78.80;;;;;;5028699;28;20467;-46
2022/02/06 07:15:02;;;;;;;2.10;1.53;;;7.20;78.70;;;;;;5009324;28;20464;-47
2022/02/06 07:17:29;;;;;;;6.77;1.87;;;7.20;78.70;;;;;;5027025;28;20641;-47
2022/02/06 07:19:55;;;;;;;6.60;2.07;;;7.20;78.80;;;;;;5025535;28;20467;-46
2022/02/06 07:22:22;;;;;;;6.20;1.83;;;7.20;78.70;;;;;;5008474;28;20513;-47
2022/02/06 07:24:51;;;;;;;4.87;1.63;;;7.10;79.00;;;;;;5010798;28;20956;-47
2022/02/06 07:27:23;;;;;;;8.63;2.33;;;7.20;78.70;;;;;;5009558;28;20471;-46
2022/02/06 07:29:50;;;;;;;2.47;1.50;;;7.10;78.70;;;;;;5023561;28;20456;-47
2022/02/06 07:32:18;;;;;;;2.73;1.43;;;7.10;78.60;;;;;;5013030;28;20463;-47
2022/02/06 07:34:44;;;;;;;3.67;1.97;;;7.10;78.80;;;;;;5021963;28;20663;-47
2022/02/06 07:37:11;;;;;;;4.20;1.80;;;7.10;78.80;;;;;;5010684;28;20831;-47
2022/02/06 07:39:42;;;;;;;4.13;1.50;;;7.10;78.70;;;;;;5026201;28;20459;-46
2022/02/06 07:42:11;;;;;;;3.60;1.90;;;7.00;78.80;;;;;;5025830;28;20497;-48
2022/02/06 07:44:38;;;;;;;3.43;1.87;;;7.00;78.90;;;;;;5024088;28;20951;-47
2022/02/06 07:47:17;;;;;;;3.27;2.07;;;7.00;79.10;;;;;;5010640;28;20471;-47
2022/02/06 07:49:48;;;;;;;2.97;1.53;;;7.00;79.10;;;;;;5020612;28;20472;-47
2022/02/06 07:52:22;;;;;;;6.20;2.57;;;7.00;79.20;;;;;;5008205;28;20801;-46
2022/02/06 07:54:50;;;;;;;3.33;1.77;;;7.00;79.20;;;;;;5025404;28;20462;-47
2022/02/06 07:57:17;;;;;;;5.17;1.70;;;7.00;79.40;;;;;;5028253;28;20459;-46
2022/02/06 07:59:44;;;;;;;3.63;1.33;;;7.00;79.20;;;;;;5027367;28;20451;-46
2022/02/06 08:02:11;;;;;;;11.33;2.40;;;7.00;79.40;;;;;;5011640;28;21051;-47
2022/02/06 08:04:38;;;;;;;4.60;2.00;;;7.00;79.80;;;;;;5021539;28;20490;-47
2022/02/06 08:07:06;;;;;;;4.90;1.60;;;7.00;80.00;;;;;;5008269;28;20459;-47
2022/02/06 08:09:51;;;;;;;5.47;1.63;;;7.00;80.30;;;;;;5006813;28;21061;-47
2022/02/06 08:12:26;;;;;;;4.30;1.90;;;7.00;80.70;;;;;;5024887;28;20471;-48
2022/02/06 08:14:56;;;;;;;5.57;3.50;;;7.00;80.60;;;;;;5027068;28;20474;-46
2022/02/06 08:17:26;;;;;;;5.47;2.40;;;6.90;81.10;;;;;;5025771;28;20467;-47
2022/02/06 08:19:54;;;;;;;3.20;1.70;;;6.90;81.60;;;;;;5023444;28;20490;-47
2022/02/06 08:22:21;;;;;;;6.33;1.90;;;6.90;81.30;;;;;;5006974;28;20487;-47
2022/02/06 08:24:49;;;;;;;4.90;1.83;;;6.90;81.50;;;;;;5025884;28;20451;-47
2022/02/06 08:27:17;;;;;;;11.27;2.23;;;6.90;81.70;;;;;;5027242;28;20458;-47
2022/02/06 08:29:46;;;;;;;3.47;2.13;;;7.00;81.70;;;;;;5026133;28;20787;-47
2022/02/06 08:32:14;;;;;;;3.17;1.50;;;6.90;82.20;;;;;;5021042;28;20474;-47
2022/02/06 08:34:46;;;;;;;2.50;1.50;;;6.90;82.50;;;;;;5023667;28;20471;-48
2022/02/06 08:37:13;;;;;;;9.37;2.20;;;7.00;82.30;;;;;;5006243;28;20467;-46
2022/02/06 08:39:42;;;;;;;1.63;1.33;;;6.90;82.40;;;;;;5012460;28;20618;-47
2022/02/06 08:42:10;;;;;;;1.90;1.43;;;6.90;82.90;;;;;;5025285;28;20455;-47
2022/02/06 08:44:39;;;;;;;5.37;1.70;;;6.90;83.00;;;;;;5026545;28;20543;-47
2022/02/06 08:47:07;;;;;;;3.30;1.90;;;6.90;82.70;;;;;;5023437;28;20487;-47
2022/02/06 08:49:35;;;;;;;2.53;1.47;;;6.90;82.90;;;;;;5025477;28;20470;-47
2022/02/06 08:52:03;;;;;;;5.13;2.23;;;6.80;83.60;;;;;;5007063;28;20459;-47
2022/02/06 08:54:33;;;;;;;2.30;1.67;;;6.90;83.10;;;;;;5010119;28;21067;-47
2022/02/06 08:57:16;;;;;;;1.80;1.10;;;6.80;83.10;;;;;;5013166;28;20490;-47
2022/02/06 08:59:43;;;;;;;1.70;1.30;;;6.80;83.00;;;;;;5013467;28;20443;-47
2022/02/06 09:02:10;;;;;;;3.20;1.20;;;6.80;83.50;;;;;;5023539;28;20474;-48
2022/02/06 09:04:37;;;;;;;2.80;1.30;;;6.70;83.50;;;;;;5025959;28;20470;-47
2022/02/06 09:07:04;;;;;;;1.80;1.70;;;6.70;83.80;;;;;;5022138;28;20464;-47
2022/02/06 09:09:32;;;;;;;1.83;1.73;;;6.80;83.70;;;;;;5010536;28;20474;-46
2022/02/06 09:12:00;;;;;;;2.93;1.57;;;6.80;83.20;;;;;;5024361;28;20451;-47
2022/02/06 09:14:27;;;;;;;4.13;2.97;;;6.80;83.70;;;;;;5022528;28;20576;-47
2022/02/06 09:16:56;;;;;;;2.30;1.93;;;6.80;83.90;;;;;;5022128;28;20456;-46
2022/02/06 09:19:22;;;;;;;1.83;1.20;;;6.90;83.70;;;;;;5022926;28;20786;-47
2022/02/06 09:21:51;;;;;;;2.50;1.40;;;6.90;83.80;;;;;;5024293;28;20463;-46
2022/02/06 09:24:20;;;;;;;2.73;1.40;;;6.90;83.60;;;;;;5022434;28;21221;-47
2022/02/06 09:26:48;;;;;;;1.67;1.00;;;6.90;83.80;;;;;;5024512;28;20451;-47
2022/02/06 09:29:16;;;;;;;3.50;1.77;;;6.90;83.70;;;;;;5011921;28;20452;-46
2022/02/06 09:31:46;;;;;;;2.73;2.40;;;6.90;83.30;;;;;;5024800;28;20459;-48
2022/02/06 09:36:40;;;;;;;6.70;2.20;;;6.90;84.10;;;;;;5023556;28;20889;-47
2022/02/06 09:39:09;;;;;;;4.67;2.30;;;6.90;84.00;;;;;;5005673;28;20463;-46
2022/02/06 09:41:46;;;;;;;3.93;1.50;;;6.90;84.20;;;;;;5020516;28;20459;-47
2022/02/06 09:44:15;;;;;;;3.67;1.70;;;6.90;84.30;;;;;;4993723;28;20518;-47
2022/02/06 09:46:50;;;;;;;2.70;1.83;;;6.90;84.00;;;;;;5026874;28;20467;-47
2022/02/06 09:49:21;;;;;;;1.80;1.47;;;6.90;84.20;;;;;;5024193;28;20492;-48
2022/02/06 09:51:49;;;;;;;3.13;2.03;;;7.00;84.30;;;;;;5026092;28;20495;-47
2022/02/06 09:54:23;;;;;;;4.03;1.57;;;6.90;84.50;;;;;;5026803;28;20875;-47
2022/02/06 09:56:55;;;;;;;2.63;2.40;;;7.00;84.80;;;;;;5024099;28;20455;-47
2022/02/06 09:59:23;;;;;;;5.43;2.47;;;7.00;84.50;;;;;;5023224;28;20975;-46
2022/02/06 10:01:55;;;;;;;3.00;2.20;;;7.10;84.10;;;;;;5024517;28;20475;-47
2022/02/06 10:04:28;;;;;;;3.67;2.10;;;7.10;84.50;;;;;;5026763;28;20483;-47
2022/02/06 10:07:07;;;;;;;2.10;1.70;;;7.10;85.00;;;;;;5026097;28;20459;-47
2022/02/06 10:09:39;;;;;;;2.60;1.70;;;7.10;85.10;;;;;;5026544;28;20816;-47
2022/02/06 10:12:07;;;;;;;2.53;1.63;;;7.10;84.40;;;;;;5025748;28;20538;-46
2022/02/06 10:14:34;;;;;;;2.60;1.33;;;7.10;85.00;;;;;;5025707;28;20467;-47
2022/02/06 10:17:01;;;;;;;1.90;1.73;;;7.10;85.30;;;;;;5025028;28;20469;-47
2022/02/06 10:19:28;;;;;;;3.70;1.80;;;7.10;85.10;;;;;;5026851;28;20547;-46
2022/02/06 10:21:55;;;;;;;4.30;2.37;;;7.10;85.70;;;;;;5011061;28;20837;-47
2022/02/06 10:24:30;;;;;;;7.00;2.50;;;7.20;85.50;;;;;;5026826;28;21031;-47
2022/02/06 10:29:44;;;;;;;2.60;1.20;;;7.20;84.90;;;;;;5028161;28;20463;-46
2022/02/06 10:32:19;;;;;;;4.37;3.93;;;7.20;85.30;;;;;;5029919;28;20447;-46
2022/02/06 10:34:46;;;;;;;1.70;1.20;;;7.20;85.30;;;;;;5029162;28;20553;-47
2022/02/06 10:37:23;;;;;;;4.53;1.80;;;7.20;85.40;;;;;;5028272;28;20471;-46
2022/02/06 10:40:03;;;;;;;1.90;1.63;;;7.10;85.50;;;;;;5027240;28;20469;-47
2022/02/06 10:42:36;;;;;;;2.10;1.73;;;7.20;86.40;;;;;;5030021;28;20455;-47
2022/02/06 10:45:15;;;;;;;2.50;1.50;;;7.20;86.00;;;;;;5028434;28;20451;-46
2022/02/06 10:47:42;;;;;;;4.20;1.53;;;7.30;86.80;;;;;;5028049;28;20493;-46
2022/02/06 10:50:16;;;;;;;1.47;1.37;;;7.40;86.20;;;;;;5013047;28;20448;-46
2022/02/06 10:52:44;;;;;;;1.63;1.53;;;7.40;85.60;;;;;;5030268;28;23484;-47
2022/02/06 10:55:14;;;;;;;1.53;1.43;;;7.40;85.00;;;;;;5028283;28;20470;-46
2022/02/06 10:58:02;;;;;;;1.90;1.80;;;7.40;85.60;;;;;;5028791;28;20550;-46
2022/02/06 11:00:34;;;;;;;5.27;1.30;;;7.30;85.40;;;;;;5008841;28;20842;-47
2022/02/06 11:03:22;;;;;;;2.40;1.10;;;7.30;85.50;;;;;;5011942;28;20578;-46
2022/02/06 11:05:52;;;;;;;2.63;1.70;;;7.30;85.40;;;;;;5014165;28;20466;-47
2022/02/06 11:08:30;;;;;;;1.17;1.07;;;7.30;85.60;;;;;;5027210;28;21024;-47
2022/02/06 11:10:59;;;;;;;2.60;1.20;;;7.30;86.20;;;;;;5029851;28;20542;-47
2022/02/06 11:13:27;;;;;;;2.37;1.70;;;7.30;86.00;;;;;;5029186;28;20542;-46
2022/02/06 11:15:57;;;;;;;2.77;1.07;;;7.30;86.40;;;;;;5028867;28;20478;-46
2022/02/06 11:18:28;;;;;;;1.30;1.20;;;7.20;86.40;;;;;;5029017;28;20473;-47
2022/02/06 11:20:59;;;;;;;3.60;1.93;;;7.20;86.90;;;;;;5025616;28;20471;-47
2022/02/06 11:23:41;;;;;;;2.70;1.00;;;7.20;86.70;;;;;;5028995;28;21049;-47
2022/02/06 11:26:13;;;;;;;3.53;1.10;;;7.20;87.50;;;;;;5030233;28;21053;-46
2022/02/06 11:28:41;;;;;;;3.03;1.33;;;7.20;87.80;;;;;;5028881;28;20447;-47
2022/02/06 11:31:07;;;;;;;1.20;0.90;;;7.20;87.30;;;;;;5027219;28;20464;-49
2022/02/06 11:33:35;;;;;;;0.90;0.90;;;7.20;87.20;;;;;;5025346;28;20467;-47
2022/02/06 11:36:12;;;;;;;1.77;1.27;;;7.10;87.50;;;;;;5028879;28;20820;-47
2022/02/06 11:45:07;;;;;;;2.13;1.93;;;7.00;87.80;;;;;;5027494;28;20991;-47
2022/02/06 11:47:44;;;;;;;1.60;1.03;;;6.90;87.60;;;;;;5026076;28;20547;-47
2022/02/06 11:50:12;;;;;;;1.57;1.20;;;6.90;88.40;;;;;;5027962;28;20534;-47
2022/02/06 11:52:54;;;;;;;1.80;0.93;;;6.80;88.50;;;;;;5028198;28;20463;-47
2022/02/06 11:55:34;;;;;;;1.07;0.90;;;6.80;88.60;;;;;;5029227;28;20452;-48
2022/02/06 11:58:31;;;;;;;3.97;0.90;;;6.70;88.20;;;;;;5030127;28;20459;-47
2022/02/06 12:01:07;;;;;;;2.80;1.27;;;6.70;88.40;;;;;;5028512;28;20460;-48
2022/02/06 12:03:47;;;;;;;2.27;1.33;;;6.70;88.70;;;;;;5026154;28;20578;-48
2022/02/06 12:06:14;;;;;;;0.77;0.77;;;6.70;89.00;;;;;;5027419;28;20478;-48
2022/02/06 12:08:59;;;;;;;1.57;0.77;;;6.70;88.70;;;;;;5027544;28;21253;-48
2022/02/06 12:11:33;;;;;;;1.67;1.00;;;6.70;89.10;;;;;;5006639;28;20965;-47
2022/02/06 12:14:24;;;;;;;1.77;1.10;;;6.70;89.00;;;;;;5023989;28;20559;-48
2022/02/06 12:18:05;;;;;;;2.17;1.60;;;6.70;89.00;;;;;;5024701;28;20480;-48
2022/02/06 12:20:08;;;;;;;1.23;1.13;;;6.60;88.80;;;;;;5010714;28;21006;-47
2022/02/06 12:22:39;;;;;;;1.43;1.33;;;6.60;88.40;;;;;;5029137;28;20464;-48
2022/02/06 12:25:35;;;;;;;2.50;1.20;;;6.60;88.90;;;;;;5026259;28;20486;-48
2022/02/06 12:28:22;;;;;;;4.67;1.40;;;6.60;89.00;;;;;;5030714;28;20536;-51
2022/02/06 12:31:14;;;;;;;1.13;1.00;;;6.60;89.40;;;;;;5042012;28;20467;-51
2022/02/06 12:33:50;;;;;;;1.10;0.93;;;6.60;89.30;;;;;;5028276;28;20447;-50
2022/02/06 12:39:32;;;;;;;0.80;0.80;;;6.70;88.80;;;;;;5043268;28;20446;-51
2022/02/06 12:42:01;;;;;;;1.50;0.90;;;6.70;87.70;;;;;;5041001;28;20523;-51
2022/02/06 12:44:29;;;;;;;1.67;0.90;;;6.70;88.20;;;;;;5042960;28;20488;-51
2022/02/06 12:47:01;;;;;;;1.07;0.67;;;6.70;88.10;;;;;;5045305;28;20494;-51
2022/02/06 12:49:34;;;;;;;0.70;0.70;;;6.70;87.90;;;;;;5018788;28;20475;-51
2022/02/06 12:52:02;;;;;;;2.53;0.70;;;6.70;88.50;;;;;;5041480;28;20436;-50
2022/02/06 12:54:29;;;;;;;0.80;0.60;;;6.70;87.90;;;;;;5029887;28;20516;-50
2022/02/06 12:56:58;;;;;;;0.70;0.70;;;6.70;88.20;;;;;;5037430;28;20467;-50
2022/02/06 12:59:28;;;;;;;0.80;0.53;;;6.70;87.90;;;;;;5030017;28;20467;-50
2022/02/06 13:02:02;;;;;;;0.70;0.67;;;6.70;87.40;;;;;;5032021;28;20470;-50
2022/02/06 13:04:31;;;;;;;1.63;1.50;;;6.70;87.70;;;;;;5029400;28;20487;-51
2022/02/06 13:07:04;;;;;;;1.57;0.70;;;6.70;88.00;;;;;;5020914;28;20447;-51
2022/02/06 13:09:43;;;;;;;1.07;0.77;;;6.70;87.90;;;;;;5030574;28;20470;-46
2022/02/06 13:20:26;;;;;;;1.23;0.60;;;6.80;87.50;;;;;;5025617;28;20742;-48
2022/02/06 13:34:18;;;;;;;1.63;0.83;;;6.90;86.40;;;;;;5029940;28;20451;-48
2022/02/06 13:37:07;;;;;;;0.77;0.77;;;6.90;86.50;;;;;;5027901;28;21055;-47
2022/02/06 13:39:42;;;;;;;0.90;0.70;;;6.90;86.90;;;;;;5028830;28;20994;-47
2022/02/06 13:42:16;;;;;;;0.70;0.70;;;6.90;86.20;;;;;;5011655;28;20456;-46
2022/02/06 13:44:43;;;;;;;0.70;0.70;;;7.00;86.70;;;;;;5036500;28;20485;-51
2022/02/06 13:47:10;;;;;;;0.87;0.50;;;7.00;86.40;;;;;;5043483;28;20558;-50
2022/02/06 13:49:46;;;;;;;0.50;0.50;;;7.00;86.10;;;;;;5044529;28;20448;-50
2022/02/06 13:52:13;;;;;;;0.53;0.43;;;7.10;86.60;;;;;;5031812;28;20566;-51
2022/02/06 13:54:46;;;;;;;1.07;1.07;;;7.10;85.90;;;;;;5043128;28;20460;-47
2022/02/06 13:57:14;;;;;;;1.17;0.30;;;7.20;86.20;;;;;;5031427;28;20487;-50
2022/02/06 13:59:44;;;;;;;1.50;0.40;;;7.20;85.10;;;;;;5015715;28;20451;-47
2022/02/06 14:02:12;;;;;;;0.67;0.40;;;7.30;85.40;;;;;;5032434;28;20459;-47
2022/02/06 14:04:42;;;;;;;0.40;0.40;;;7.40;84.90;;;;;;5030856;28;20497;-48
2022/02/06 14:07:13;;;;;;;1.73;0.43;;;7.40;84.80;;;;;;5007169;28;20471;-48
2022/02/06 14:12:25;;;;;;;0.60;0.50;;;7.50;84.70;;;;;;5014907;28;20483;-48
2022/02/06 14:15:03;;;;;;;0.67;0.67;;;7.50;84.40;;;;;;5029605;28;20594;-47
2022/02/06 14:17:42;;;;;;;1.00;0.40;;;7.60;84.20;;;;;;5013972;28;20538;-48
2022/02/06 14:20:15;;;;;;;0.50;0.40;;;7.60;84.10;;;;;;5026847;28;20569;-48
2022/02/06 14:23:04;;;;;;;0.47;0.47;;;7.60;84.50;;;;;;5015702;28;20467;-48
2022/02/06 14:25:33;;;;;;;0.60;0.50;;;7.60;84.50;;;;;;5029240;28;20873;-48
2022/02/06 14:28:26;;;;;;;0.60;0.33;;;7.60;84.60;;;;;;5029616;28;20477;-47
2022/02/06 14:30:54;;;;;;;0.60;0.60;;;7.60;84.30;;;;;;5028420;28;20448;-48
2022/02/06 14:33:23;;;;;;;0.70;0.60;;;7.60;84.30;;;;;;5014040;28;20460;-48
2022/02/06 14:35:57;;;;;;;2.43;0.37;;;7.60;84.40;;;;;;5016062;28;20447;-50
2022/02/06 14:38:35;;;;;;;0.50;0.40;;;7.60;84.70;;;;;;5030278;28;20451;-50
2022/02/06 14:41:21;;;;;;;0.43;0.43;;;7.60;85.10;;;;;;5031031;28;20598;-50
2022/02/06 14:44:08;;;;;;;0.50;0.50;;;7.60;84.70;;;;;;5015876;28;20492;-51
2022/02/06 14:46:36;;;;;;;0.77;0.77;;;7.60;85.20;;;;;;5030521;28;20536;-51
2022/02/06 14:49:06;;;;;;;0.30;0.30;;;7.60;85.70;;;;;;5030548;28;20456;-50
2022/02/06 14:51:41;;;;;;;0.80;0.53;;;7.50;85.90;;;;;;5028627;28;20482;-50
2022/02/06 14:54:10;;;;;;;0.60;0.57;;;7.50;86.70;;;;;;5026507;28;20985;-50
2022/02/06 14:56:39;;;;;;;0.40;0.40;;;7.50;87.10;;;;;;5030108;28;20956;-50
2022/02/06 14:59:08;;;;;;;2.40;1.10;;;7.40;87.10;;;;;;5030085;28;21071;-50
2022/02/06 15:01:35;;;;;;;0.70;0.70;;;7.40;88.00;;;;;;5012866;28;20451;-50
2022/02/06 15:04:04;;;;;;;0.40;0.40;;;7.40;88.50;;;;;;5027251;28;20579;-50
2022/02/06 15:06:32;;;;;;;0.77;0.63;;;7.30;88.30;;;;;;5028439;28;20463;-50
2022/02/06 15:08:59;;;;;;;0.90;0.70;;;7.30;88.50;;;;;;5012991;28;20482;-50
2022/02/06 15:11:26;;;;;;;0.90;0.67;;;7.30;88.60;;;;;;5028483;28;20451;-50
2022/02/06 15:13:53;;;;;;;0.80;0.40;;;7.20;89.30;;;;;;5024179;28;20824;-50
2022/02/06 15:16:24;;;;;;;0.40;0.40;;;7.30;89.40;;;;;;5027315;28;20927;-50
2022/02/06 15:19:12;;;;;;;0.73;0.57;;;7.30;89.20;;;;;;5026234;28;20458;-49
2022/02/06 15:21:39;;;;;;;0.57;0.47;;;7.30;89.30;;;;;;5027427;28;20443;-50
2022/02/06 15:24:06;;;;;;;0.50;0.50;;;7.30;89.80;;;;;;5026667;28;20487;-50
2022/02/06 15:26:51;;;;;;;1.17;0.63;;;7.20;89.80;;;;;;5013276;28;20450;-48
2022/02/06 15:29:18;;;;;;;1.30;0.67;;;7.30;89.80;;;;;;5038432;28;20884;-45
2022/02/06 15:31:45;;;;;;;3.30;1.20;;;7.20;89.80;;;;;;5029134;28;20450;-46
2022/02/06 15:34:15;;;;;;;1.57;0.67;;;7.20;89.80;;;;;;5027361;28;20460;-45
2022/02/06 15:36:49;;;;;;;1.30;1.17;;;7.30;89.80;;;;;;5028616;28;20538;-50
2022/02/06 15:39:22;;;;;;;1.30;0.83;;;7.30;89.80;;;;;;5019404;28;21601;-50
2022/02/06 15:41:53;;;;;;;2.00;1.03;;;7.30;89.80;;;;;;5030614;28;20479;-48
2022/02/06 15:44:20;;;;;;;1.90;1.03;;;7.30;89.80;;;;;;5015032;28;20489;-49
2022/02/06 15:46:47;;;;;;;2.03;0.93;;;7.30;89.80;;;;;;5032902;28;20910;-49
2022/02/06 15:49:14;;;;;;;1.20;1.10;;;7.30;89.80;;;;;;5028715;28;20577;-49
2022/02/06 15:51:41;;;;;;;1.23;0.97;;;7.40;89.80;;;;;;5035022;28;20514;-50
2022/02/06 15:54:07;;;;;;;0.90;0.90;;;7.40;89.80;;;;;;5047419;28;20448;-50
2022/02/06 15:56:37;;;;;;;0.80;0.80;;;7.40;89.80;;;;;;5026473;28;20483;-47